Time;durP1;ratioP1;P1;durP2;ratioP2;P2;SDS_P1;SDS_P2;PMS_P1;PMS_P2;Temp;Humidity;BMP_temperature;BMP_pressure;BME280_temperature;BME280_humidity;BME280_pressure;Samples;Min_cycle;Max_cycle;Signal;HPM_P1;HPM_P2
2021/03/30 00:00:06;;;;;;;8.45;3.38;;;9.70;73.60;;;;;;5074460;28;20044;-69
2021/03/30 00:02:31;;;;;;;11.25;3.83;;;9.70;74.20;;;;;;5074655;28;20086;-69
2021/03/30 00:04:57;;;;;;;9.93;3.42;;;9.60;74.50;;;;;;5073306;28;20045;-69
2021/03/30 00:07:23;;;;;;;9.40;4.35;;;9.50;74.80;;;;;;5073489;28;20051;-69
2021/03/30 00:09:48;;;;;;;11.20;3.85;;;9.50;75.20;;;;;;5073607;28;20075;-68
2021/03/30 00:12:14;;;;;;;6.70;3.03;;;9.50;75.20;;;;;;5073795;28;20044;-69
2021/03/30 00:14:40;;;;;;;9.98;3.60;;;9.50;75.30;;;;;;5073232;28;20036;-69
2021/03/30 00:17:06;;;;;;;13.05;4.60;;;9.50;75.10;;;;;;5073513;28;20032;-69
2021/03/30 00:19:31;;;;;;;12.57;4.60;;;9.50;75.50;;;;;;5074007;28;20097;-69
2021/03/30 00:21:57;;;;;;;14.48;4.75;;;9.50;75.50;;;;;;5073871;28;20066;-69
2021/03/30 00:24:23;;;;;;;7.85;3.30;;;9.60;75.70;;;;;;5073034;28;20040;-69
2021/03/30 00:26:49;;;;;;;12.95;3.92;;;9.50;75.50;;;;;;5073426;28;20044;-69
2021/03/30 00:29:14;;;;;;;8.50;4.68;;;9.50;75.30;;;;;;5073687;28;20102;-69
2021/03/30 00:31:40;;;;;;;10.30;4.05;;;9.50;75.60;;;;;;5073329;28;20040;-69
2021/03/30 00:34:06;;;;;;;9.63;3.78;;;9.50;75.30;;;;;;5073536;28;20045;-69
2021/03/30 00:36:32;;;;;;;12.90;4.32;;;9.50;75.50;;;;;;5072721;28;20049;-69
2021/03/30 00:38:57;;;;;;;10.13;4.45;;;9.50;75.40;;;;;;5072706;28;20048;-69
2021/03/30 00:41:23;;;;;;;9.93;4.65;;;9.60;75.50;;;;;;5073422;28;20400;-69
2021/03/30 00:43:49;;;;;;;10.75;4.43;;;9.60;75.80;;;;;;5073328;28;20040;-69
2021/03/30 00:46:16;;;;;;;8.82;4.45;;;9.60;76.00;;;;;;5072998;28;20493;-69
2021/03/30 00:48:49;;;;;;;10.32;5.13;;;9.60;76.30;;;;;;5073183;28;20052;-69
2021/03/30 00:51:18;;;;;;;9.27;4.95;;;9.50;76.60;;;;;;5073192;28;20040;-69
2021/03/30 00:53:45;;;;;;;17.90;5.40;;;9.50;77.00;;;;;;5073369;28;20033;-69
2021/03/30 00:56:11;;;;;;;9.63;4.78;;;9.40;76.90;;;;;;5072516;28;20108;-69
2021/03/30 00:58:36;;;;;;;16.73;6.40;;;9.40;76.90;;;;;;5073074;28;20119;-69
2021/03/30 01:01:03;;;;;;;12.35;5.07;;;9.50;76.50;;;;;;5072942;28;20055;-69
2021/03/30 01:03:29;;;;;;;12.00;5.50;;;9.50;76.30;;;;;;5073608;28;20040;-69
2021/03/30 01:05:54;;;;;;;15.00;5.13;;;9.50;76.80;;;;;;5072574;28;20481;-69
2021/03/30 01:08:48;;;;;;;13.68;5.72;;;9.40;77.00;;;;;;5073084;28;20055;-69
2021/03/30 01:11:23;;;;;;;10.80;6.03;;;9.40;76.90;;;;;;5073517;28;20111;-69
2021/03/30 01:13:59;;;;;;;13.27;5.40;;;9.40;77.00;;;;;;5073678;28;20048;-69
2021/03/30 01:16:39;;;;;;;10.95;5.35;;;9.40;77.00;;;;;;5072464;28;20044;-69
2021/03/30 01:19:32;;;;;;;11.05;5.18;;;9.40;77.10;;;;;;5073129;28;20075;-69
2021/03/30 01:22:41;;;;;;;12.80;6.30;;;9.40;76.80;;;;;;5072958;28;20389;-69
2021/03/30 01:25:08;;;;;;;13.30;5.88;;;9.40;77.10;;;;;;5072555;28;20064;-69
2021/03/30 01:28:02;;;;;;;15.88;6.10;;;9.40;76.90;;;;;;5072795;28;20040;-69
2021/03/30 01:30:32;;;;;;;12.35;5.85;;;9.30;77.20;;;;;;5072635;28;20045;-69
2021/03/30 01:33:03;;;;;;;15.13;5.55;;;9.30;77.10;;;;;;5072848;28;20079;-69
2021/03/30 01:35:32;;;;;;;19.77;6.95;;;9.30;77.40;;;;;;5072543;28;20048;-69
2021/03/30 01:37:58;;;;;;;15.43;6.45;;;9.30;77.30;;;;;;5072872;28;20041;-69
2021/03/30 01:40:29;;;;;;;11.38;5.65;;;9.30;77.20;;;;;;5072672;28;20066;-69
2021/03/30 01:42:56;;;;;;;12.57;5.45;;;9.20;77.70;;;;;;5072538;28;20434;-69
2021/03/30 01:45:23;;;;;;;13.68;5.65;;;9.20;77.50;;;;;;5072376;28;20046;-69
2021/03/30 01:47:52;;;;;;;14.77;7.57;;;9.20;77.80;;;;;;5072775;28;20041;-69
2021/03/30 01:50:19;;;;;;;16.45;5.95;;;9.20;78.00;;;;;;5076283;28;20041;-69
2021/03/30 01:52:46;;;;;;;14.23;6.75;;;9.10;77.50;;;;;;5076154;28;20500;-69
2021/03/30 01:55:14;;;;;;;10.75;5.32;;;9.10;77.80;;;;;;5075977;28;20043;-69
2021/03/30 01:57:44;;;;;;;12.05;5.85;;;9.10;77.40;;;;;;5075925;28;20040;-69
2021/03/30 02:00:10;;;;;;;13.00;5.70;;;9.10;77.30;;;;;;5076151;28;20484;-69
2021/03/30 02:02:36;;;;;;;10.30;5.70;;;9.10;77.30;;;;;;5075943;28;20476;-69
2021/03/30 02:05:04;;;;;;;15.85;6.20;;;9.10;77.20;;;;;;5057893;28;20079;-69
2021/03/30 02:07:32;;;;;;;11.75;5.70;;;9.00;76.90;;;;;;5075883;28;20411;-69
2021/03/30 02:10:01;;;;;;;11.85;5.28;;;9.00;77.00;;;;;;5075885;28;20056;-69
2021/03/30 02:12:31;;;;;;;19.25;5.82;;;9.10;77.10;;;;;;5076193;28;20089;-69
2021/03/30 02:14:57;;;;;;;15.07;5.60;;;9.00;77.10;;;;;;5075537;28;20041;-69
2021/03/30 02:17:37;;;;;;;10.80;5.93;;;9.00;77.10;;;;;;5075882;28;20529;-69
2021/03/30 02:20:10;;;;;;;12.13;5.40;;;9.00;77.10;;;;;;5075638;28;20047;-69
2021/03/30 02:22:50;;;;;;;13.88;5.18;;;8.90;77.10;;;;;;5075638;28;20048;-69
2021/03/30 02:25:19;;;;;;;15.93;5.10;;;8.90;77.00;;;;;;5075308;28;20475;-69
2021/03/30 02:27:47;;;;;;;11.48;5.45;;;8.90;77.20;;;;;;5075500;28;20040;-69
2021/03/30 02:30:14;;;;;;;12.68;4.90;;;8.90;77.40;;;;;;5075443;28;20041;-69
2021/03/30 02:32:42;;;;;;;12.32;5.35;;;8.90;77.20;;;;;;5075311;28;20381;-69
2021/03/30 02:35:11;;;;;;;10.98;5.70;;;8.90;77.20;;;;;;5075570;28;20074;-69
2021/03/30 02:37:38;;;;;;;9.80;5.07;;;8.90;77.00;;;;;;5075513;28;20040;-69
2021/03/30 02:40:08;;;;;;;14.48;6.10;;;8.90;77.30;;;;;;5075581;28;20465;-69
2021/03/30 02:42:36;;;;;;;12.55;5.53;;;8.90;77.30;;;;;;5075292;28;20040;-69
2021/03/30 02:45:03;;;;;;;12.05;5.50;;;8.80;77.00;;;;;;5074758;28;20068;-69
2021/03/30 02:47:29;;;;;;;9.93;5.70;;;8.90;77.30;;;;;;5075232;28;20514;-69
2021/03/30 02:49:55;;;;;;;15.70;5.95;;;8.80;77.50;;;;;;5075069;28;20123;-69
2021/03/30 02:52:23;;;;;;;12.85;5.10;;;8.70;77.50;;;;;;5075092;28;20406;-69
2021/03/30 02:54:49;;;;;;;10.50;5.65;;;8.80;77.60;;;;;;5074660;28;20543;-69
2021/03/30 02:57:16;;;;;;;14.20;5.63;;;8.80;77.00;;;;;;5075040;28;20033;-69
2021/03/30 02:59:43;;;;;;;15.73;5.65;;;8.70;77.10;;;;;;5074376;28;20040;-69
2021/03/30 03:02:11;;;;;;;10.15;5.30;;;8.70;76.70;;;;;;5074717;28;20040;-69
2021/03/30 03:04:37;;;;;;;13.50;6.65;;;8.70;76.90;;;;;;5074455;28;20066;-69
2021/03/30 03:07:04;;;;;;;10.15;5.05;;;8.70;77.00;;;;;;5074889;28;20341;-70
2021/03/30 03:09:32;;;;;;;15.25;5.18;;;8.70;77.10;;;;;;5074855;28;20044;-69
2021/03/30 03:11:58;;;;;;;8.85;4.72;;;8.70;76.50;;;;;;5074865;28;20118;-69
2021/03/30 03:14:25;;;;;;;9.95;4.70;;;8.70;76.90;;;;;;5074534;28;20478;-69
2021/03/30 03:16:52;;;;;;;12.13;5.30;;;8.70;77.70;;;;;;5074692;28;20465;-69
2021/03/30 03:19:18;;;;;;;9.93;5.00;;;8.70;76.70;;;;;;5074480;28;20041;-69
2021/03/30 03:21:44;;;;;;;13.65;5.70;;;8.70;76.90;;;;;;5074365;28;20063;-69
2021/03/30 03:24:12;;;;;;;10.57;5.65;;;8.70;77.10;;;;;;5074635;28;20045;-69
2021/03/30 03:26:39;;;;;;;11.40;5.45;;;8.60;77.00;;;;;;5074011;28;20115;-70
2021/03/30 03:29:18;;;;;;;12.07;5.72;;;8.60;77.30;;;;;;5074452;28;20037;-69
2021/03/30 03:31:45;;;;;;;10.55;5.38;;;8.60;76.90;;;;;;5056632;28;20048;-69
2021/03/30 03:34:15;;;;;;;12.23;4.97;;;8.60;76.90;;;;;;5074792;28;20041;-69
2021/03/30 03:36:46;;;;;;;11.07;4.85;;;8.60;77.00;;;;;;5073930;28;20391;-69
2021/03/30 03:39:14;;;;;;;10.48;5.25;;;8.60;76.90;;;;;;5056240;28;20115;-69
2021/03/30 03:41:41;;;;;;;13.68;5.40;;;8.60;77.00;;;;;;5074164;28;20052;-69
2021/03/30 03:44:07;;;;;;;12.02;5.80;;;8.50;77.00;;;;;;5074120;28;20107;-69
2021/03/30 03:46:34;;;;;;;8.30;5.00;;;8.50;77.20;;;;;;5073896;28;20127;-69
2021/03/30 03:49:00;;;;;;;14.88;5.68;;;8.50;77.40;;;;;;5073992;28;20124;-69
2021/03/30 03:51:31;;;;;;;9.60;5.00;;;8.50;77.60;;;;;;5073938;28;20119;-69
2021/03/30 03:54:00;;;;;;;10.70;5.90;;;8.50;77.70;;;;;;5074189;28;20036;-69
2021/03/30 03:56:38;;;;;;;13.05;6.05;;;8.50;77.70;;;;;;5073595;28;20048;-69
2021/03/30 03:59:20;;;;;;;11.25;5.55;;;8.50;77.70;;;;;;5073987;28;20047;-69
2021/03/30 04:02:21;;;;;;;11.68;5.85;;;8.50;77.70;;;;;;5074019;28;20085;-69
2021/03/30 04:05:08;;;;;;;14.77;5.88;;;8.50;78.20;;;;;;5073331;28;20068;-69
2021/03/30 04:07:49;;;;;;;13.27;5.55;;;8.50;78.20;;;;;;5055907;28;20047;-69
2021/03/30 04:10:20;;;;;;;10.02;5.75;;;8.40;78.20;;;;;;5073669;28;20408;-69
2021/03/30 04:12:47;;;;;;;12.68;5.78;;;8.40;78.40;;;;;;5073393;28;20036;-69
2021/03/30 04:15:15;;;;;;;10.23;5.63;;;8.40;78.90;;;;;;5073332;28;20068;-69
2021/03/30 04:17:42;;;;;;;10.13;5.32;;;8.40;78.90;;;;;;5073381;28;20401;-69
2021/03/30 04:20:14;;;;;;;12.05;5.75;;;8.40;78.80;;;;;;5073374;28;20058;-67
2021/03/30 04:22:41;;;;;;;11.23;5.13;;;8.40;78.90;;;;;;5073840;28;20037;-69
2021/03/30 04:25:08;;;;;;;15.88;6.18;;;8.40;78.60;;;;;;5072975;28;20423;-69
2021/03/30 04:27:33;;;;;;;14.77;5.97;;;8.40;78.70;;;;;;5073257;28;20063;-69
2021/03/30 04:29:59;;;;;;;9.90;5.85;;;8.40;78.70;;;;;;5073295;28;20484;-69
2021/03/30 04:32:25;;;;;;;12.77;5.75;;;8.40;78.60;;;;;;5073200;28;20071;-69
2021/03/30 04:34:51;;;;;;;9.93;5.75;;;8.40;78.80;;;;;;5072884;28;20068;-69
2021/03/30 04:37:18;;;;;;;14.90;5.30;;;8.40;78.60;;;;;;5055614;28;20127;-69
2021/03/30 04:39:44;;;;;;;13.40;6.20;;;8.40;78.70;;;;;;5073180;28;20496;-69
2021/03/30 04:42:10;;;;;;;10.88;6.68;;;8.30;78.70;;;;;;5073503;28;20115;-69
2021/03/30 04:44:35;;;;;;;14.82;6.25;;;8.30;78.80;;;;;;5072955;28;20032;-69
2021/03/30 04:47:01;;;;;;;11.32;5.80;;;8.30;79.00;;;;;;5073008;28;20036;-69
2021/03/30 04:49:28;;;;;;;10.20;5.75;;;8.30;79.10;;;;;;5072924;28;20051;-69
2021/03/30 04:51:54;;;;;;;14.75;7.03;;;8.30;79.10;;;;;;5073535;28;20040;-69
2021/03/30 04:54:20;;;;;;;12.45;6.00;;;8.30;79.20;;;;;;5072936;28;20497;-69
2021/03/30 04:56:46;;;;;;;13.55;6.60;;;8.20;79.60;;;;;;5072690;28;20032;-69
2021/03/30 04:59:12;;;;;;;17.75;6.25;;;8.10;79.70;;;;;;5073145;28;20078;-69
2021/03/30 05:01:38;;;;;;;9.68;5.95;;;8.10;80.00;;;;;;5055303;28;20125;-69
2021/03/30 05:04:03;;;;;;;11.20;6.93;;;8.00;80.00;;;;;;5073012;28;20461;-69
2021/03/30 05:06:29;;;;;;;11.65;6.90;;;8.00;80.00;;;;;;5072810;28;20045;-69
2021/03/30 05:08:55;;;;;;;15.10;7.40;;;8.00;79.90;;;;;;5072890;28;20041;-69
2021/03/30 05:11:22;;;;;;;16.08;7.38;;;8.00;80.00;;;;;;5072931;28;20037;-69
2021/03/30 05:13:47;;;;;;;11.88;6.03;;;8.00;80.20;;;;;;5072858;28;20477;-69
2021/03/30 05:16:13;;;;;;;14.52;8.18;;;7.90;80.20;;;;;;5072818;28;20040;-69
2021/03/30 05:18:39;;;;;;;16.95;7.03;;;7.90;80.40;;;;;;5073199;28;20412;-69
2021/03/30 05:21:05;;;;;;;14.25;7.72;;;7.90;80.30;;;;;;5055507;28;20385;-69
2021/03/30 05:23:30;;;;;;;16.13;6.95;;;7.90;80.40;;;;;;5073521;28;20090;-69
2021/03/30 05:25:57;;;;;;;12.65;7.45;;;7.90;80.30;;;;;;5076631;28;20044;-69
2021/03/30 05:28:22;;;;;;;11.02;6.75;;;7.80;80.40;;;;;;5076897;28;20066;-69
2021/03/30 05:30:48;;;;;;;11.10;7.22;;;7.80;80.30;;;;;;5076600;28;20140;-69
2021/03/30 05:33:13;;;;;;;13.23;7.38;;;7.80;80.30;;;;;;5076950;28;20041;-69
2021/03/30 05:35:39;;;;;;;14.25;7.60;;;7.80;81.10;;;;;;5076127;28;20048;-69
2021/03/30 05:38:05;;;;;;;13.23;7.22;;;7.90;80.40;;;;;;5076420;28;20119;-69
2021/03/30 05:40:31;;;;;;;11.27;7.28;;;7.80;80.40;;;;;;5076421;28;20443;-69
2021/03/30 05:42:58;;;;;;;13.15;7.45;;;7.80;80.70;;;;;;5058617;28;20037;-69
2021/03/30 05:45:23;;;;;;;14.90;7.32;;;7.80;80.70;;;;;;5058343;28;20067;-69
2021/03/30 05:47:50;;;;;;;12.18;7.63;;;7.80;80.80;;;;;;5076344;28;20044;-69
2021/03/30 05:50:18;;;;;;;13.88;8.43;;;7.90;80.90;;;;;;5076224;28;20079;-69
2021/03/30 05:52:53;;;;;;;12.35;7.43;;;7.90;80.70;;;;;;5076034;28;20043;-69
2021/03/30 05:55:25;;;;;;;12.27;7.95;;;7.90;80.60;;;;;;5075767;28;20434;-69
2021/03/30 05:57:56;;;;;;;14.55;7.40;;;7.90;80.70;;;;;;5076111;28;20041;-68
2021/03/30 06:00:35;;;;;;;13.98;7.78;;;8.00;80.60;;;;;;5076051;28;20044;-68
2021/03/30 06:03:05;;;;;;;14.38;8.07;;;8.00;80.60;;;;;;5076666;28;20112;-68
2021/03/30 06:05:31;;;;;;;14.05;8.15;;;8.00;80.60;;;;;;5075670;28;20137;-68
2021/03/30 06:07:59;;;;;;;13.27;7.30;;;8.00;80.60;;;;;;5075959;28;20088;-68
2021/03/30 06:10:27;;;;;;;16.90;8.93;;;8.00;80.80;;;;;;5076049;28;20094;-68
2021/03/30 06:12:53;;;;;;;12.02;8.18;;;8.10;80.70;;;;;;5076194;28;20036;-68
2021/03/30 06:15:19;;;;;;;15.85;8.55;;;8.20;80.60;;;;;;5075623;28;20036;-68
2021/03/30 06:17:47;;;;;;;20.08;9.15;;;8.30;80.20;;;;;;5076091;28;20044;-68
2021/03/30 06:20:26;;;;;;;16.48;8.48;;;8.50;79.70;;;;;;5075642;28;20047;-68
2021/03/30 06:22:54;;;;;;;13.43;8.32;;;8.70;79.50;;;;;;5075557;28;20032;-68
2021/03/30 06:25:42;;;;;;;14.13;8.15;;;8.90;78.80;;;;;;5075186;28;20076;-69
2021/03/30 06:28:27;;;;;;;16.00;8.95;;;9.20;78.20;;;;;;5075266;28;20040;-69
2021/03/30 06:31:09;;;;;;;15.80;9.35;;;9.50;77.50;;;;;;5075333;28;20041;-69
2021/03/30 06:33:47;;;;;;;16.55;9.18;;;9.80;76.40;;;;;;5075304;28;20040;-69
2021/03/30 06:36:19;;;;;;;15.63;9.13;;;10.20;75.40;;;;;;5073713;28;20059;-69
2021/03/30 06:38:55;;;;;;;16.77;8.77;;;10.50;74.30;;;;;;5075344;28;20173;-69
2021/03/30 06:47:03;;;;;;;19.05;8.95;;;11.30;71.90;;;;;;5075226;28;20067;-69
2021/03/30 06:49:34;;;;;;;13.82;7.47;;;11.50;71.40;;;;;;5075412;28;20456;-69
2021/03/30 06:52:12;;;;;;;14.52;8.07;;;11.90;70.20;;;;;;5075114;28;20045;-69
2021/03/30 06:54:50;;;;;;;13.95;8.32;;;12.10;69.30;;;;;;5075037;28;20115;-69
2021/03/30 06:57:37;;;;;;;16.73;8.48;;;12.40;68.40;;;;;;5074784;28;20037;-69
2021/03/30 07:00:09;;;;;;;16.13;8.02;;;12.60;67.50;;;;;;5057175;28;20127;-70
2021/03/30 07:02:56;;;;;;;15.35;7.85;;;12.80;66.70;;;;;;5074924;28;20459;-68
2021/03/30 07:05:23;;;;;;;9.65;7.10;;;13.00;66.50;;;;;;5074529;28;20097;-68
2021/03/30 07:07:56;;;;;;;17.30;8.35;;;13.00;66.20;;;;;;5074578;28;20400;-68
2021/03/30 07:10:23;;;;;;;11.73;8.27;;;13.40;64.70;;;;;;5074725;28;20037;-68
2021/03/30 07:12:50;;;;;;;21.48;7.75;;;13.50;64.60;;;;;;5074753;28;20111;-68
2021/03/30 07:15:18;;;;;;;14.35;7.93;;;13.60;64.10;;;;;;5074396;28;20036;-68
2021/03/30 07:17:50;;;;;;;15.65;8.23;;;13.80;64.20;;;;;;5074213;28;20480;-68
2021/03/30 07:20:17;;;;;;;15.57;8.48;;;13.90;63.40;;;;;;5074477;28;20404;-69
2021/03/30 07:22:46;;;;;;;14.60;8.38;;;14.10;63.20;;;;;;5056587;28;20043;-69
2021/03/30 07:25:14;;;;;;;14.20;7.32;;;14.20;62.40;;;;;;5056391;28;20056;-69
2021/03/30 07:28:13;;;;;;;15.63;7.32;;;14.30;62.30;;;;;;5074129;28;20052;-68
2021/03/30 07:30:45;;;;;;;14.90;7.50;;;14.50;62.20;;;;;;5070575;28;20063;-68
2021/03/30 07:33:26;;;;;;;16.52;7.90;;;14.60;62.40;;;;;;5074238;28;20083;-69
2021/03/30 07:35:56;;;;;;;15.07;7.43;;;14.70;62.30;;;;;;5073759;28;20036;-69
2021/03/30 07:38:29;;;;;;;11.82;7.18;;;14.80;61.30;;;;;;5074331;28;20045;-68
2021/03/30 07:40:55;;;;;;;13.98;6.60;;;14.90;60.70;;;;;;5074117;28;20393;-69
2021/03/30 07:43:25;;;;;;;13.38;7.35;;;15.10;61.20;;;;;;5056143;28;20043;-69
2021/03/30 07:45:53;;;;;;;13.02;7.82;;;15.30;59.60;;;;;;5073336;28;20060;-69
2021/03/30 07:48:21;;;;;;;17.80;7.50;;;15.30;60.00;;;;;;5073745;28;20381;-69
2021/03/30 07:51:09;;;;;;;16.02;8.05;;;15.20;59.30;;;;;;5074036;28;20048;-68
2021/03/30 07:53:40;;;;;;;13.73;7.10;;;15.30;59.00;;;;;;5074451;28;20123;-68
2021/03/30 07:56:08;;;;;;;15.27;7.28;;;15.30;58.50;;;;;;5073335;28;20040;-69
2021/03/30 07:58:42;;;;;;;12.30;7.05;;;15.40;59.10;;;;;;5073895;28;20044;-69
2021/03/30 08:01:09;;;;;;;15.30;7.05;;;15.70;59.10;;;;;;5074045;28;20037;-69
2021/03/30 08:03:36;;;;;;;16.23;8.10;;;16.10;58.40;;;;;;5073838;28;20040;-69
2021/03/30 08:06:10;;;;;;;14.93;7.75;;;16.40;57.80;;;;;;5073405;28;20032;-69
2021/03/30 08:09:06;;;;;;;15.77;7.25;;;16.60;57.70;;;;;;5073428;28;20544;-69
2021/03/30 08:11:38;;;;;;;12.65;7.20;;;16.60;56.60;;;;;;5055721;28;20047;-69
2021/03/30 08:14:06;;;;;;;18.80;7.57;;;16.80;57.10;;;;;;5073477;28;20111;-69
2021/03/30 08:16:37;;;;;;;14.38;6.82;;;17.00;56.70;;;;;;5073029;28;20040;-68
2021/03/30 08:19:05;;;;;;;12.25;7.93;;;17.00;56.10;;;;;;5073381;28;20041;-69
2021/03/30 08:21:55;;;;;;;16.83;6.88;;;16.80;56.10;;;;;;5073318;28;20040;-69
2021/03/30 08:24:25;;;;;;;15.70;7.07;;;16.90;54.10;;;;;;5073383;28;20044;-69
2021/03/30 08:26:51;;;;;;;12.65;6.50;;;17.00;55.60;;;;;;5073431;28;20048;-69
2021/03/30 08:29:32;;;;;;;12.23;7.32;;;17.20;55.60;;;;;;5073226;28;20465;-69
2021/03/30 08:32:01;;;;;;;16.90;7.13;;;17.40;55.10;;;;;;5073107;28;20051;-69
2021/03/30 08:34:38;;;;;;;15.85;6.75;;;17.40;55.30;;;;;;5073499;28;20036;-69
2021/03/30 08:37:12;;;;;;;20.95;6.95;;;17.50;55.70;;;;;;5073339;28;20044;-69
2021/03/30 08:39:41;;;;;;;14.45;6.57;;;17.60;54.40;;;;;;5073459;28;20063;-69
2021/03/30 08:42:18;;;;;;;19.48;6.45;;;17.50;54.90;;;;;;5055493;28;20033;-69
2021/03/30 08:45:00;;;;;;;14.95;6.88;;;17.30;54.70;;;;;;5055041;28;20051;-69
2021/03/30 08:47:36;;;;;;;14.18;7.03;;;17.10;54.40;;;;;;5073520;28;20046;-69
2021/03/30 08:50:17;;;;;;;12.18;6.15;;;17.30;55.80;;;;;;5073171;28;20041;-69
2021/03/30 08:52:43;;;;;;;13.40;5.95;;;17.30;55.80;;;;;;5073545;28;20507;-69
2021/03/30 08:55:10;;;;;;;17.25;6.78;;;17.50;56.00;;;;;;5072782;28;20040;-69
2021/03/30 08:57:39;;;;;;;12.32;5.85;;;17.60;55.40;;;;;;5073150;28;20071;-68
2021/03/30 09:00:11;;;;;;;15.52;6.13;;;17.90;54.90;;;;;;5076660;28;20036;-69
2021/03/30 09:02:37;;;;;;;13.13;6.13;;;17.90;55.20;;;;;;5077889;28;20044;-69
2021/03/30 09:05:14;;;;;;;16.35;6.70;;;17.80;54.50;;;;;;5076737;28;20124;-69
2021/03/30 09:07:44;;;;;;;10.90;5.82;;;17.80;54.50;;;;;;5077500;28;20047;-69
2021/03/30 09:10:11;;;;;;;20.35;6.30;;;17.60;55.20;;;;;;5077588;28;20056;-68
2021/03/30 09:12:36;;;;;;;10.20;5.00;;;17.60;56.00;;;;;;5077468;28;20135;-69
2021/03/30 09:15:08;;;;;;;14.00;6.15;;;17.60;56.10;;;;;;5076829;28;20519;-69
2021/03/30 09:17:34;;;;;;;12.85;5.57;;;17.60;55.70;;;;;;5076786;28;20041;-69
2021/03/30 09:20:01;;;;;;;16.20;6.38;;;17.70;56.00;;;;;;5076926;28;20106;-69
2021/03/30 09:22:31;;;;;;;15.50;5.88;;;17.80;56.60;;;;;;5077123;28;20060;-69
2021/03/30 09:25:21;;;;;;;14.48;5.93;;;17.80;56.00;;;;;;5076658;28;20040;-69
2021/03/30 09:27:50;;;;;;;17.27;6.57;;;17.80;55.70;;;;;;5076499;28;20196;-69
2021/03/30 09:30:18;;;;;;;12.57;5.78;;;17.70;55.80;;;;;;5076811;28;20047;-69
2021/03/30 09:32:46;;;;;;;15.85;5.95;;;17.70;56.20;;;;;;5076709;28;20048;-69
2021/03/30 09:35:24;;;;;;;15.32;6.35;;;17.60;57.10;;;;;;5076331;28;20063;-69
2021/03/30 09:37:57;;;;;;;18.13;6.85;;;17.50;56.60;;;;;;5076541;28;20067;-69
2021/03/30 09:40:31;;;;;;;13.45;6.85;;;17.50;57.10;;;;;;5076779;28;20064;-69
2021/03/30 09:42:58;;;;;;;17.08;7.13;;;17.50;57.90;;;;;;5076701;28;20119;-71
2021/03/30 09:45:32;;;;;;;10.13;5.55;;;17.50;57.90;;;;;;5076043;28;20484;-69
2021/03/30 09:48:00;;;;;;;17.33;6.15;;;17.60;58.00;;;;;;5076454;28;20051;-68
2021/03/30 09:50:27;;;;;;;14.25;6.28;;;17.50;57.40;;;;;;5076478;28;20120;-69
2021/03/30 09:53:00;;;;;;;14.40;5.65;;;17.50;57.70;;;;;;5076174;28;20044;-69
2021/03/30 09:55:33;;;;;;;14.45;6.55;;;17.40;57.30;;;;;;5075773;28;20036;-69
2021/03/30 09:58:00;;;;;;;;;;;17.30;57.30;;;;;;5076689;28;20090;-69
2021/03/30 10:00:27;;;;;;;15.13;5.70;;;17.30;58.50;;;;;;5076128;28;20283;-68
2021/03/30 10:02:53;;;;;;;13.98;5.68;;;17.40;59.00;;;;;;5075952;28;20074;-69
2021/03/30 10:05:19;;;;;;;14.13;5.78;;;17.40;57.80;;;;;;5075578;28;20041;-68
2021/03/30 10:07:45;;;;;;;13.65;6.22;;;17.40;57.80;;;;;;5075737;28;20045;-68
2021/03/30 10:10:13;;;;;;;14.50;6.03;;;17.50;57.00;;;;;;5075495;28;20162;-68
2021/03/30 10:12:55;;;;;;;12.20;5.38;;;17.50;56.60;;;;;;5076378;28;20125;-68
2021/03/30 10:15:38;;;;;;;14.13;6.53;;;17.50;56.30;;;;;;5075642;28;20040;-68
2021/03/30 10:18:05;;;;;;;12.32;5.18;;;17.50;55.90;;;;;;5076064;28;20178;-69
2021/03/30 10:20:35;;;;;;;10.63;5.65;;;17.40;56.70;;;;;;5075647;28;20150;-68
2021/03/30 10:23:01;;;;;;;11.73;6.15;;;17.50;57.50;;;;;;5075582;28;20397;-69
2021/03/30 10:25:30;;;;;;;15.80;6.35;;;17.40;56.30;;;;;;5075391;28;20051;-69
2021/03/30 10:28:01;;;;;;;15.30;5.82;;;17.40;56.70;;;;;;5075401;28;20048;-69
2021/03/30 10:30:40;;;;;;;13.70;5.70;;;17.40;56.50;;;;;;5075732;28;20044;-69
2021/03/30 10:33:11;;;;;;;15.65;6.22;;;17.30;57.60;;;;;;5075427;28;20047;-69
2021/03/30 10:35:38;;;;;;;13.20;5.80;;;17.50;56.80;;;;;;5075248;28;20032;-69
2021/03/30 10:38:04;;;;;;;12.02;5.35;;;17.50;56.50;;;;;;5075608;28;20119;-69
2021/03/30 10:40:32;;;;;;;11.07;5.53;;;17.50;56.00;;;;;;5075603;28;20041;-69
2021/03/30 10:43:20;;;;;;;12.82;6.15;;;17.50;56.10;;;;;;5075153;28;20052;-69
2021/03/30 10:45:46;;;;;;;17.63;6.35;;;17.50;54.60;;;;;;5074777;28;20064;-69
2021/03/30 10:48:12;;;;;;;19.02;6.07;;;17.50;55.80;;;;;;5074972;28;20033;-69
2021/03/30 10:50:38;;;;;;;10.45;5.70;;;17.50;55.70;;;;;;5057334;28;20068;-69
2021/03/30 10:53:06;;;;;;;14.68;5.47;;;17.50;56.00;;;;;;5074986;28;20115;-69
2021/03/30 10:55:33;;;;;;;11.38;5.50;;;17.60;54.80;;;;;;5074620;28;20089;-69
2021/03/30 10:58:00;;;;;;;16.38;5.80;;;17.60;53.80;;;;;;5074931;28;20044;-69
2021/03/30 11:00:25;;;;;;;8.93;5.03;;;17.70;54.80;;;;;;5074872;28;20044;-68
2021/03/30 11:02:54;;;;;;;16.17;5.45;;;17.80;53.40;;;;;;5075140;28;20090;-69
2021/03/30 11:05:19;;;;;;;16.30;5.78;;;17.80;52.70;;;;;;5074648;28;20455;-69
2021/03/30 11:07:45;;;;;;;17.00;5.18;;;17.80;52.60;;;;;;5074684;28;20071;-69
2021/03/30 11:10:11;;;;;;;9.32;4.45;;;17.90;52.30;;;;;;5074724;28;20492;-69
2021/03/30 11:12:39;;;;;;;14.55;5.13;;;17.90;49.70;;;;;;5074950;28;20036;-69
2021/03/30 11:15:06;;;;;;;13.10;5.80;;;17.90;50.60;;;;;;5074397;28;20037;-69
2021/03/30 11:17:32;;;;;;;13.88;6.32;;;17.80;50.80;;;;;;5074454;28;20036;-69
2021/03/30 11:19:57;;;;;;;11.95;5.88;;;17.80;51.00;;;;;;5074441;28;20051;-68
2021/03/30 11:22:23;;;;;;;10.02;4.65;;;17.90;51.00;;;;;;5073884;28;20442;-69
2021/03/30 11:24:53;;;;;;;7.50;4.32;;;18.00;50.90;;;;;;5073998;28;20119;-69
2021/03/30 11:27:22;;;;;;;9.75;3.90;;;17.90;49.40;;;;;;5074916;28;20041;-69
2021/03/30 11:30:05;;;;;;;7.60;4.45;;;17.80;47.30;;;;;;5074396;28;20040;-69
2021/03/30 11:35:01;;;;;;;11.55;4.63;;;17.80;49.10;;;;;;5074241;28;20044;-66
2021/03/30 11:39:57;;;;;;;11.65;4.15;;;18.10;48.50;;;;;;5074059;28;20037;-66
2021/03/30 11:42:24;;;;;;;8.85;3.97;;;18.20;47.20;;;;;;5074545;28;20393;-68
2021/03/30 11:44:51;;;;;;;10.75;4.15;;;18.20;46.30;;;;;;5073594;28;20615;-67
2021/03/30 11:47:16;;;;;;;8.85;4.43;;;18.30;47.30;;;;;;5073954;28;20032;-67
2021/03/30 11:49:42;;;;;;;9.20;4.47;;;18.50;47.10;;;;;;5074146;28;20554;-67
2021/03/30 11:52:08;;;;;;;9.75;4.55;;;18.60;47.10;;;;;;5073643;28;20041;-67
2021/03/30 11:54:34;;;;;;;12.02;4.90;;;18.60;45.20;;;;;;5073272;28;20162;-67
2021/03/30 11:57:01;;;;;;;9.15;4.20;;;18.50;46.20;;;;;;5073371;28;20115;-67
2021/03/30 11:59:26;;;;;;;13.50;4.47;;;18.40;46.90;;;;;;5073252;28;20400;-67
2021/03/30 12:01:53;;;;;;;8.57;4.15;;;18.60;46.40;;;;;;5073723;28;20032;-67
2021/03/30 12:04:19;;;;;;;8.73;4.32;;;18.70;45.80;;;;;;5073494;28;20036;-67
2021/03/30 12:06:45;;;;;;;9.05;3.83;;;18.80;46.70;;;;;;5073468;28;20047;-67
2021/03/30 12:09:10;;;;;;;14.25;5.22;;;18.80;45.70;;;;;;5073371;28;20049;-67
2021/03/30 12:11:36;;;;;;;11.70;4.78;;;18.80;46.10;;;;;;5074187;28;20461;-66
2021/03/30 12:14:02;;;;;;;9.07;4.07;;;18.80;45.70;;;;;;5073845;28;20062;-67
2021/03/30 12:16:28;;;;;;;11.35;4.20;;;18.90;45.50;;;;;;5073387;28;20057;-67
2021/03/30 12:18:55;;;;;;;10.57;4.05;;;18.90;45.00;;;;;;5073338;28;20458;-67
2021/03/30 12:21:22;;;;;;;10.15;4.47;;;18.90;45.20;;;;;;5073613;28;20032;-66
2021/03/30 12:23:48;;;;;;;10.10;4.97;;;19.00;45.70;;;;;;5073333;28;20044;-67
2021/03/30 12:26:16;;;;;;;8.43;3.90;;;19.00;43.80;;;;;;5055311;28;20045;-67
2021/03/30 12:28:41;;;;;;;7.88;3.88;;;19.10;44.00;;;;;;5073217;28;20040;-67
2021/03/30 12:31:07;;;;;;;7.63;4.15;;;19.20;43.30;;;;;;5073179;28;20040;-67
2021/03/30 12:33:33;;;;;;;10.48;3.80;;;19.20;41.30;;;;;;5073819;28;20040;-67
2021/03/30 12:36:00;;;;;;;8.93;4.82;;;19.10;42.20;;;;;;5072937;28;20467;-67
2021/03/30 12:38:26;;;;;;;7.75;3.45;;;19.20;42.70;;;;;;5055450;28;20045;-67
2021/03/30 12:40:52;;;;;;;8.15;3.65;;;19.30;42.00;;;;;;5073237;28;20047;-67
2021/03/30 12:43:19;;;;;;;11.68;4.30;;;19.40;40.80;;;;;;5073375;28;20041;-67
2021/03/30 12:45:44;;;;;;;9.32;4.47;;;19.50;41.60;;;;;;5072873;28;20040;-67
2021/03/30 12:48:10;;;;;;;7.95;4.38;;;19.50;41.00;;;;;;5072974;28;20380;-70
2021/03/30 12:50:37;;;;;;;10.48;5.22;;;19.40;41.60;;;;;;5073560;28;20118;-68
2021/03/30 12:53:04;;;;;;;7.40;4.60;;;19.40;42.90;;;;;;5073446;28;20032;-70
2021/03/30 12:55:30;;;;;;;9.05;4.35;;;19.30;42.20;;;;;;5054693;28;20036;-72
2021/03/30 12:57:56;;;;;;;8.77;4.10;;;19.40;41.30;;;;;;5073006;28;20051;-71
2021/03/30 13:00:22;;;;;;;9.30;3.92;;;19.30;41.70;;;;;;5055133;28;20112;-71
2021/03/30 13:02:49;;;;;;;10.35;4.40;;;19.30;41.00;;;;;;5073074;28;20040;-71
2021/03/30 13:05:15;;;;;;;8.85;3.75;;;19.30;41.20;;;;;;5072919;28;20033;-71